Time;durP1;ratioP1;P1;durP2;ratioP2;P2;SDS_P1;SDS_P2;PMS_P1;PMS_P2;Temp;Humidity;BMP_temperature;BMP_pressure;BME280_temperature;BME280_humidity;BME280_pressure;Samples;Min_cycle;Max_cycle;Signal;HPM_P1;HPM_P2
2021/12/17 00:04:50;;;;;;;;;59.00;48.75;;;;;7.89;78.70;103077.34;5060637;28;45187;-77
2021/12/17 00:07:17;;;;;;;;;62.00;48.00;;;;;7.81;78.84;103061.97;5064992;28;46373;-77
2021/12/17 00:09:45;;;;;;;;;61.75;49.00;;;;;7.60;78.20;103024.97;5062602;28;45451;-77
2021/12/17 00:12:13;;;;;;;;;60.50;48.50;;;;;7.48;78.99;103016.41;5062988;28;45258;-78
2021/12/17 00:14:40;;;;;;;;;58.25;48.00;;;;;7.81;79.12;103072.47;5063005;28;45492;-76
2021/12/17 00:17:10;;;;;;;;;52.50;45.25;;;;;7.79;78.66;103069.78;5062448;28;46348;-76
2021/12/17 00:49:28;;;;;;;;;60.67;49.33;;;;;7.56;80.13;103051.84;5070456;28;45885;-76
2021/12/17 00:54:32;;;;;;;;;58.00;46.50;;;;;7.50;80.26;103046.25;5060135;28;45319;-79
2021/12/17 00:57:02;;;;;;;;;53.67;45.33;;;;;7.59;80.43;103057.25;5059932;28;45449;-75
2021/12/17 00:59:28;;;;;;;;;57.00;48.00;;;;;7.40;80.04;103027.38;5059405;28;46432;-77
2021/12/17 01:01:58;;;;;;;;;65.00;49.00;;;;;7.55;81.09;103055.31;5059457;28;45444;-78
2021/12/17 01:04:23;;;;;;;;;63.67;50.67;;;;;7.55;80.20;103047.44;5059686;28;45221;-78
2021/12/17 01:06:50;;;;;;;;;59.00;49.00;;;;;7.49;80.51;103041.81;5060007;28;45408;-78
2021/12/17 01:09:20;;;;;;;;;60.00;49.33;;;;;7.49;80.52;103045.34;5059498;28;45716;-78
2021/12/17 01:11:45;;;;;;;;;59.75;50.50;;;;;7.33;80.71;103013.81;5059822;28;45243;-78
2021/12/17 01:14:11;;;;;;;;;60.67;47.67;;;;;7.40;80.44;103030.00;5059604;28;45212;-78
2021/12/17 01:16:37;;;;;;;;;63.50;50.50;;;;;7.42;80.20;103040.56;5059948;28;45467;-78
2021/12/17 01:19:24;;;;;;;;;59.00;48.00;;;;;7.18;80.34;103003.38;5059764;28;46373;-77
2021/12/17 01:22:39;;;;;;;;;58.75;48.50;;;;;7.27;80.92;103026.59;5059303;28;45412;-77
2021/12/17 01:24:56;;;;;;;;;51.00;44.25;;;;;7.39;81.25;103054.41;5058226;28;45510;-78
2021/12/17 01:35:37;;;;;;;;;64.33;50.33;;;;;7.25;81.18;103034.34;5059511;28;45313;-80
2021/12/17 01:43:24;;;;;;;;;62.50;49.00;;;;;7.28;81.09;103045.03;5059259;28;45460;-79
2021/12/17 01:45:50;;;;;;;;;63.25;48.25;;;;;7.33;81.11;103047.91;5059131;28;45393;-78
2021/12/17 01:48:20;;;;;;;;;54.75;47.25;;;;;7.31;80.41;103039.94;5058734;28;45424;-78
2021/12/17 02:01:49;;;;;;;;;60.25;46.00;;;;;7.20;80.82;103032.28;5058238;28;45743;-78
2021/12/17 02:04:15;;;;;;;;;56.75;45.00;;;;;7.10;80.46;103015.13;5058935;28;45226;-78
2021/12/17 02:06:40;;;;;;;;;58.25;44.25;;;;;7.15;80.23;103024.16;5058870;28;45662;-77
2021/12/17 02:09:52;;;;;;;;;53.25;43.25;;;;;7.21;80.98;103034.09;5058883;28;45372;-78
2021/12/17 02:20:41;;;;;;;;;52.50;45.00;;;;;7.11;80.08;103023.06;5059032;28;45232;-79
2021/12/17 02:28:50;;;;;;;;;61.33;46.33;;;;;7.01;80.00;103018.13;5058756;28;45316;-78
2021/12/17 02:31:30;;;;;;;;;51.00;40.50;;;;;7.00;80.32;103021.56;5058811;28;45417;-78
2021/12/17 02:34:04;;;;;;;;;56.00;45.67;;;;;7.09;80.30;103031.69;5057856;28;46570;-80
2021/12/17 02:36:33;;;;;;;;;56.33;45.33;;;;;7.09;80.54;103036.91;5058596;28;45514;-77
2021/12/17 02:39:35;;;;;;;;;54.33;44.00;;;;;6.93;80.29;103005.38;5058558;28;45409;-78
2021/12/17 02:47:21;;;;;;;;;58.33;49.00;;;;;7.01;80.23;103015.50;5058179;28;45702;-78
2021/12/17 02:49:48;;;;;;;;;55.67;48.67;;;;;7.11;80.23;103033.56;5058121;28;45383;-78
2021/12/17 02:52:15;;;;;;;;;63.00;50.67;;;;;7.03;79.72;103019.09;5058482;28;45220;-78
2021/12/17 02:54:41;;;;;;;;;58.75;47.25;;;;;7.09;80.52;103029.06;5057439;28;45464;-77
2021/12/17 02:57:09;;;;;;;;;58.25;48.00;;;;;6.87;80.09;102992.81;5058286;28;45539;-78
2021/12/17 02:59:36;;;;;;;;;62.33;48.00;;;;;6.90;80.40;102997.34;5057891;28;45396;-78
2021/12/17 03:02:03;;;;;;;;;59.50;46.50;;;;;7.04;80.83;103022.63;5058341;28;45413;-78
2021/12/17 03:04:30;;;;;;;;;54.50;44.00;;;;;6.97;80.51;103003.00;5057119;28;46420;-78
2021/12/17 03:06:57;;;;;;;;;50.00;41.50;;;;;6.99;80.09;103003.13;5057295;28;45588;-75
2021/12/17 03:09:39;;;;;;;;;60.25;49.25;;;;;6.98;80.20;103011.78;5057842;28;45284;-78
2021/12/17 03:12:18;;;;;;;;;52.25;46.00;;;;;6.96;80.09;103006.44;5038220;28;45402;-78
2021/12/17 03:14:52;;;;;;;;;54.33;44.33;;;;;7.03;79.51;103016.47;5038564;28;46397;-78
2021/12/17 03:17:31;;;;;;;;;53.75;44.75;;;;;6.93;80.52;102990.56;5055872;28;45317;-79
2021/12/17 03:25:06;;;;;;;;;62.67;45.33;;;;;6.68;80.09;102951.53;5037412;28;45334;-78
2021/12/17 03:27:31;;;;;;;;;57.00;44.50;;;;;6.89;79.68;102987.66;5056043;28;45432;-78
2021/12/17 03:29:57;;;;;;;;;48.00;43.25;;;;;6.95;79.56;103001.13;5057782;28;45240;-77
2021/12/17 03:32:22;;;;;;;;;50.50;41.00;;;;;6.80;79.68;102986.34;5057431;28;45433;-79
2021/12/17 03:34:48;;;;;;;;;51.33;41.67;;;;;6.88;79.89;102991.09;5057847;28;46427;-80
2021/12/17 03:37:14;;;;;;;;;59.33;45.00;;;;;6.74;79.82;102975.50;5057183;28;45366;-76
2021/12/17 03:39:39;;;;;;;;;56.50;44.75;;;;;6.88;79.91;102999.84;5057516;28;45461;-80
2021/12/17 03:42:07;;;;;;;;;56.75;42.50;;;;;6.58;80.06;102960.56;5057547;28;45539;-78
2021/12/17 03:44:33;;;;;;;;;58.33;45.00;;;;;6.86;80.21;102999.78;5057124;28;46403;-78
2021/12/17 03:47:00;;;;;;;;;55.75;44.25;;;;;6.76;80.16;102965.09;5056958;28;45585;-79
2021/12/17 03:49:25;;;;;;;;;50.25;42.75;;;;;7.07;79.37;103012.31;5057397;28;45406;-77
2021/12/17 03:52:04;;;;;;;;;54.00;44.50;;;;;7.19;79.84;103015.66;5057567;28;45318;-80
2021/12/17 03:54:34;;;;;;;;;54.50;44.75;;;;;7.22;78.82;103005.34;5056676;28;46567;-77
2021/12/17 03:57:01;;;;;;;;;59.00;46.75;;;;;7.38;78.33;103022.88;5057276;28;45549;-79
2021/12/17 03:59:26;;;;;;;;;57.00;45.33;;;;;7.38;78.40;103017.63;5056782;28;45447;-78
2021/12/17 04:01:52;;;;;;;;;48.33;43.67;;;;;7.38;78.21;103008.03;5057952;28;45343;-78
2021/12/17 04:04:17;;;;;;;;;53.25;41.75;;;;;7.20;78.25;102969.38;5057010;28;45680;-79
2021/12/17 04:06:43;;;;;;;;;55.25;42.50;;;;;7.42;77.96;102994.25;5056897;28;45736;-78
2021/12/17 04:09:09;;;;;;;;;58.75;46.50;;;;;7.33;77.71;102974.50;5056543;28;45531;-78
2021/12/17 04:11:34;;;;;;;;;54.25;44.50;;;;;7.40;77.98;102969.69;5057407;28;45163;-79
2021/12/17 04:14:00;;;;;;;;;54.25;44.50;;;;;7.57;77.52;102985.47;5060483;28;45426;-78
2021/12/17 04:16:30;;;;;;;;;58.75;46.75;;;;;7.76;76.74;103014.50;5060339;28;45426;-78
2021/12/17 04:18:56;;;;;;;;;47.25;41.00;;;;;7.78;76.77;103011.97;5060118;28;45338;-78
2021/12/17 04:21:22;;;;;;;;;59.33;46.00;;;;;7.71;76.58;103003.75;5060832;28;45361;-78
2021/12/17 04:23:49;;;;;;;;;56.25;44.50;;;;;7.80;76.95;103013.84;5060463;28;46346;-78
2021/12/17 04:26:16;;;;;;;;;46.75;41.00;;;;;7.56;76.62;102952.19;5060583;28;45242;-77
2021/12/17 04:28:48;;;;;;;;;54.50;43.50;;;;;7.81;76.40;102999.91;5060740;28;45375;-77
2021/12/17 04:31:15;;;;;;;;;59.25;45.00;;;;;7.90;76.69;103016.16;5060436;28;45541;-79
2021/12/17 04:33:42;;;;;;;;;55.50;46.50;;;;;7.76;76.75;102980.41;5059999;28;46502;-78
2021/12/17 04:36:12;;;;;;;;;53.00;43.00;;;;;7.97;76.35;103009.53;5060329;28;45401;-77
2021/12/17 04:38:38;;;;;;;;;54.25;44.75;;;;;7.96;76.77;102990.25;5060475;28;45219;-79
2021/12/17 04:41:54;;;;;;;;;56.00;44.50;;;;;8.02;76.12;102994.06;5060687;28;45380;-78
2021/12/17 04:44:27;;;;;;;;;46.75;37.25;;;;;7.94;75.95;102980.50;5051494;28;46405;-78
2021/12/17 04:47:01;;;;;;;;;44.75;40.25;;;;;7.93;75.75;102978.72;5058201;28;45450;-77
2021/12/17 04:57:38;;;;;;;;;49.75;42.00;;;;;8.08;76.06;102991.72;5060746;28;45408;-78
2021/12/17 05:00:12;;;;;;;;;49.50;41.50;;;;;8.09;76.52;102993.53;5060145;28;45353;-78
2021/12/17 05:02:43;;;;;;;;;53.50;42.00;;;;;8.09;75.73;102990.91;5060206;28;45327;-78
2021/12/17 05:05:10;;;;;;;;;45.50;41.75;;;;;8.21;76.33;103009.97;5059397;28;46108;-78
2021/12/17 05:07:41;;;;;;;;;48.00;42.25;;;;;8.24;76.55;103005.75;5059929;28;45409;-78
2021/12/17 05:10:26;;;;;;;;;56.00;43.50;;;;;7.91;75.99;102944.50;5059862;28;45342;-79
2021/12/17 05:18:26;;;;;;;;;61.25;46.00;;;;;8.21;75.78;102989.84;5059624;28;45484;-77
2021/12/17 05:20:58;;;;;;;;;46.00;41.75;;;;;8.14;75.87;102978.94;5059833;28;45446;-77
2021/12/17 05:23:30;;;;;;;;;50.75;43.75;;;;;8.34;76.03;103012.41;5059927;28;45353;-79
2021/12/17 05:25:57;;;;;;;;;51.25;44.50;;;;;8.25;75.88;102980.41;5058709;28;46215;-79
2021/12/17 05:28:23;;;;;;;;;51.00;40.75;;;;;8.24;75.83;102981.22;5059485;28;45361;-78
2021/12/17 05:30:48;;;;;;;;;48.75;42.00;;;;;8.37;76.18;102993.31;5059748;28;45372;-78
2021/12/17 05:33:16;;;;;;;;;48.00;39.75;;;;;8.36;76.40;102994.13;5059492;28;45459;-78
2021/12/17 05:35:42;;;;;;;;;59.50;42.50;;;;;8.48;76.39;103005.31;5059170;28;45243;-78
2021/12/17 05:38:08;;;;;;;;;37.75;32.75;;;;;8.50;76.10;103007.19;5058865;28;45361;-78
2021/12/17 05:40:34;;;;;;;;;45.00;38.50;;;;;8.29;75.93;102966.63;5058887;28;45405;-77
2021/12/17 05:43:02;;;;;;;;;55.75;42.00;;;;;8.31;75.81;102958.84;5059247;28;45351;-78
2021/12/17 05:45:35;;;;;;;;;46.50;40.75;;;;;8.27;76.15;102950.78;5058870;28;46430;-78
2021/12/17 05:48:06;;;;;;;;;42.50;36.00;;;;;8.41;75.75;102969.94;5059093;28;45488;-78
2021/12/17 05:50:33;;;;;;;;;46.75;41.00;;;;;8.62;76.54;103003.38;5059258;28;45926;-78
2021/12/17 05:52:59;;;;;;;;;52.50;38.50;;;;;8.45;75.87;102971.88;5058756;28;45740;-77
2021/12/17 05:55:26;;;;;;;;;46.50;41.00;;;;;8.48;75.98;102969.44;5058900;28;46531;-78
2021/12/17 05:57:52;;;;;;;;;47.75;39.50;;;;;8.63;75.88;102986.78;5058462;28;45318;-78
2021/12/17 06:00:19;;;;;;;;;54.25;40.75;;;;;8.63;76.16;102989.41;5059273;28;45328;-78
2021/12/17 06:02:44;;;;;;;;;37.50;34.25;;;;;8.49;76.41;102965.97;5058887;28;45219;-77
2021/12/17 06:05:10;;;;;;;;;39.75;36.75;;;;;8.74;75.98;102998.75;5058789;28;45252;-78
2021/12/17 06:07:35;;;;;;;;;41.75;39.00;;;;;8.49;75.90;102955.47;5058812;28;45453;-79
2021/12/17 06:10:04;;;;;;;;;44.75;39.00;;;;;8.73;76.16;102989.97;5058974;28;45372;-78
2021/12/17 06:12:29;;;;;;;;;42.25;39.25;;;;;8.73;75.89;102992.59;5058703;28;45314;-78
2021/12/17 06:14:55;;;;;;;;;53.25;43.25;;;;;8.54;76.35;102955.69;5058046;28;45547;-78
2021/12/17 06:17:20;;;;;;;;;43.25;38.00;;;;;8.59;76.25;102963.81;5058803;28;45310;-78
2021/12/17 06:19:46;;;;;;;;;41.50;35.00;;;;;8.53;75.95;102944.28;5058940;28;45345;-78
2021/12/17 06:22:12;;;;;;;;;44.00;40.50;;;;;8.88;76.27;103005.63;5058858;28;45444;-78
2021/12/17 06:24:37;;;;;;;;;44.75;39.00;;;;;8.86;76.60;103004.66;5057596;28;45472;-77
2021/12/17 06:27:03;;;;;;;;;53.25;39.75;;;;;8.84;76.44;102998.38;5058563;28;45331;-77
2021/12/17 06:29:29;;;;;;;;;42.00;38.00;;;;;8.85;76.18;102995.84;5058398;28;45575;-78
2021/12/17 06:31:54;;;;;;;;;32.50;30.75;;;;;8.89;76.26;102996.91;5058891;28;45373;-78
2021/12/17 06:34:19;;;;;;;;;41.75;39.50;;;;;8.91;76.26;102996.97;5057504;28;46189;-79
2021/12/17 06:36:45;;;;;;;;;43.75;39.00;;;;;8.73;76.34;102963.69;5040125;28;45254;-78
2021/12/17 06:39:10;;;;;;;;;44.50;37.75;;;;;8.89;76.84;102982.84;5058202;28;45581;-80
2021/12/17 06:41:37;;;;;;;;;46.75;37.75;;;;;8.77;76.22;102964.75;5058458;28;45398;-77
2021/12/17 06:44:03;;;;;;;;;38.50;33.75;;;;;9.00;76.76;103002.69;5055296;28;46261;-78
2021/12/17 06:46:37;;;;;;;;;42.25;33.50;;;;;8.93;76.51;102995.31;5066848;28;45811;-77
2021/12/17 06:55:08;;;;;;;;;41.00;33.25;;;;;9.05;76.73;102996.84;4989048;28;45909;-78
2021/12/17 07:11:12;;;;;;;;;38.50;34.75;;;;;9.20;77.01;103012.47;4976247;28;45349;-78
2021/12/17 07:19:46;;;;;;;;;42.75;36.50;;;;;9.16;77.38;103002.63;4976763;28;45503;-78
2021/12/17 07:32:49;;;;;;;;;33.50;30.50;;;;;9.27;76.90;103014.56;4975392;28;45448;-78
2021/12/17 07:40:31;;;;;;;;;39.50;36.00;;;;;9.24;76.85;103005.66;4979307;28;45543;-76
2021/12/17 07:42:57;;;;;;;;;40.25;32.75;;;;;9.20;77.01;103003.69;4975384;28;45510;-77
2021/12/17 07:45:22;;;;;;;;;39.25;33.50;;;;;9.09;76.75;102977.75;4964370;28;45456;-77
2021/12/17 07:47:48;;;;;;;;;37.75;30.75;;;;;9.00;77.02;102963.25;4938800;28;46318;-77
2021/12/17 07:50:13;;;;;;;;;34.25;30.75;;;;;9.34;76.79;103021.94;4950048;28;45578;-77
2021/12/17 07:52:39;;;;;;;;;40.75;36.50;;;;;9.21;76.75;103001.13;4954518;28;45277;-77
2021/12/17 07:55:04;;;;;;;;;35.25;32.50;;;;;9.32;77.24;103009.56;4955769;28;45519;-78
2021/12/17 07:57:30;;;;;;;;;38.25;32.00;;;;;9.37;76.70;103018.56;4955490;28;46752;-77
2021/12/17 07:59:55;;;;;;;;;37.75;33.75;;;;;9.27;76.91;102992.63;4962784;28;45600;-78
2021/12/17 08:02:20;;;;;;;;;34.25;33.00;;;;;9.43;76.61;103019.78;5016489;28;45393;-76
2021/12/17 08:04:46;;;;;;;;;40.25;33.00;;;;;9.24;76.71;102981.97;5016360;28;45429;-76
2021/12/17 08:07:11;;;;;;;;;31.75;30.25;;;;;9.52;76.54;103029.84;5016479;28;45853;-75
2021/12/17 08:09:39;;;;;;;;;34.00;28.25;;;;;9.48;76.71;103011.19;5016176;28;45414;-75
2021/12/17 08:12:05;;;;;;;;;36.75;35.50;;;;;9.56;76.89;103015.09;5016110;28;45437;-77
2021/12/17 08:14:31;;;;;;;;;44.50;34.50;;;;;9.41;77.04;102996.84;5016503;28;45537;-76
2021/12/17 08:25:11;;;;;;;;;40.50;34.25;;;;;9.64;77.12;103038.31;5016338;28;45394;-77
2021/12/17 08:30:38;;;;;;;;;36.00;32.75;;;;;9.64;77.06;103040.94;5016415;28;45336;-76
2021/12/17 08:32:54;;;;;;;;;44.00;33.25;;;;;9.34;76.93;102993.00;5015384;28;45827;-76
2021/12/17 08:35:20;;;;;;;;;40.25;35.75;;;;;9.53;76.86;103013.22;5003440;28;45418;-76
2021/12/17 08:37:46;;;;;;;;;31.50;29.00;;;;;9.44;76.68;103002.25;4997813;28;45508;-76
2021/12/17 08:40:11;;;;;;;;;35.00;31.25;;;;;9.74;76.81;103041.38;5016296;28;45343;-77
2021/12/17 08:42:37;;;;;;;;;39.50;32.00;;;;;9.63;77.01;103026.00;5015601;28;45316;-76
2021/12/17 08:45:04;;;;;;;;;36.00;31.25;;;;;9.56;76.61;103009.81;5032298;28;45514;-78
2021/12/17 08:47:31;;;;;;;;;39.00;28.00;;;;;9.51;76.67;102990.31;5055935;28;45593;-76
2021/12/17 08:50:01;;;;;;;;;26.00;25.75;;;;;9.72;76.74;103028.16;5038218;28;45304;-77
2021/12/17 08:52:26;;;;;;;;;30.50;25.50;;;;;9.75;76.96;103038.81;5055436;28;45532;-78
2021/12/17 08:54:51;;;;;;;;;34.00;26.75;;;;;9.68;76.38;103018.31;5050825;28;45398;-76
2021/12/17 08:57:17;;;;;;;;;36.00;32.00;;;;;9.73;76.32;103029.06;5055297;28;45403;-75
2021/12/17 08:59:42;;;;;;;;;36.75;32.75;;;;;9.49;76.21;102984.03;5052661;28;45406;-75
2021/12/17 09:02:07;;;;;;;;;40.00;30.00;;;;;9.78;76.91;103039.00;5061546;28;45352;-75
2021/12/17 09:04:33;;;;;;;;;33.50;30.50;;;;;9.75;76.98;103030.91;5061789;28;45481;-74
2021/12/17 09:06:58;;;;;;;;;38.00;34.25;;;;;9.76;76.68;103022.19;5058826;28;45612;-77
2021/12/17 09:09:24;;;;;;;;;32.50;32.50;;;;;9.79;76.37;103035.53;5058856;28;45439;-77
2021/12/17 09:11:50;;;;;;;;;34.50;28.75;;;;;9.76;76.89;103032.72;5054851;28;45439;-75
2021/12/17 09:14:19;;;;;;;;;35.50;32.25;;;;;9.79;76.83;103039.88;5059763;28;45594;-75
2021/12/17 09:16:46;;;;;;;;;33.75;31.00;;;;;9.88;76.47;103058.75;5051992;28;46392;-74
2021/12/17 09:19:12;;;;;;;;;40.50;33.75;;;;;9.80;76.36;103037.31;5058087;28;45454;-76
2021/12/17 09:21:38;;;;;;;;;38.25;30.50;;;;;9.73;76.19;103021.16;5079258;28;45404;-76
2021/12/17 09:24:04;;;;;;;;;39.25;34.25;;;;;9.91;76.21;103056.25;5078892;28;45407;-76
2021/12/17 09:26:32;;;;;;;;;37.75;29.75;;;;;9.84;76.44;103041.88;5079191;28;46181;-74
2021/12/17 09:28:58;;;;;;;;;39.75;36.50;;;;;9.69;76.62;103018.41;5062194;28;45520;-75
2021/12/17 09:31:24;;;;;;;;;39.50;33.50;;;;;9.82;76.39;103056.72;5066211;28;45467;-75
2021/12/17 09:33:49;;;;;;;;;49.25;39.50;;;;;9.85;76.64;103053.31;5065705;28;45526;-74
2021/12/17 09:36:16;;;;;;;;;33.00;31.25;;;;;9.86;76.08;103057.75;5055917;28;45518;-74
2021/12/17 09:38:42;;;;;;;;;39.00;34.75;;;;;9.90;76.33;103065.88;5056534;28;45436;-74
2021/12/17 09:41:08;;;;;;;;;38.00;33.50;;;;;9.91;76.44;103056.25;5055937;28;45372;-75
2021/12/17 09:43:35;;;;;;;;;40.00;33.50;;;;;9.96;75.86;103071.44;5039974;28;45610;-74
2021/12/17 09:46:06;;;;;;;;;44.75;36.75;;;;;9.92;76.26;103055.41;5061009;28;45528;-75
2021/12/17 09:48:33;;;;;;;;;39.50;33.25;;;;;10.02;75.91;103075.19;5055529;28;45345;-76
2021/12/17 09:51:01;;;;;;;;;35.75;34.75;;;;;9.93;76.76;103070.38;5058821;28;45272;-74
2021/12/17 09:53:27;;;;;;;;;28.00;28.00;;;;;10.05;76.21;103081.50;5042654;28;45455;-75
2021/12/17 09:55:52;;;;;;;;;47.00;35.25;;;;;9.87;75.81;103043.78;5060704;28;46536;-73
2021/12/17 09:58:18;;;;;;;;;46.25;39.00;;;;;9.83;76.22;103053.25;5063591;28;45610;-73
2021/12/17 10:00:44;;;;;;;;;36.75;32.75;;;;;9.97;75.92;103083.78;5052782;28;45830;-72
2021/12/17 10:03:09;;;;;;;;;35.75;33.00;;;;;9.82;76.16;103059.34;5055956;28;45512;-73
2021/12/17 10:05:37;;;;;;;;;54.00;46.75;;;;;9.95;76.09;103081.88;5057035;28;45726;-73
2021/12/17 10:08:14;;;;;;;;;43.50;31.25;;;;;9.90;75.79;103073.78;5051021;28;45455;-73
2021/12/17 10:10:49;;;;;;;;;38.75;36.00;;;;;9.87;75.79;103042.06;5071973;28;45505;-74
2021/12/17 10:13:24;;;;;;;;;49.50;36.75;;;;;10.11;76.09;103086.16;5049170;28;45533;-74
2021/12/17 10:15:52;;;;;;;;;50.50;39.50;;;;;9.94;76.01;103041.50;5056793;28;45868;-74
2021/12/17 10:18:29;;;;;;;;;45.00;38.00;;;;;10.12;75.71;103069.50;5058127;28;45477;-76
2021/12/17 10:21:01;;;;;;;;;41.00;34.75;;;;;10.15;76.37;103064.41;5058050;28;45403;-74
2021/12/17 10:23:29;;;;;;;;;36.75;36.00;;;;;10.02;76.08;103033.94;5057669;28;45521;-74
2021/12/17 10:25:55;;;;;;;;;27.75;22.00;;;;;10.20;76.01;103055.88;5039012;28;47461;-74
2021/12/17 10:28:22;;;;;;;;;39.25;38.00;;;;;10.22;75.60;103062.13;5038975;28;45439;-74
2021/12/17 10:30:50;;;;;;;;;39.75;33.75;;;;;9.86;75.54;102997.19;5057506;28;45492;-76
2021/12/17 10:33:20;;;;;;;;;44.25;38.25;;;;;10.23;75.51;103055.13;5058006;28;45433;-75
2021/12/17 10:35:49;;;;;;;;;34.50;31.50;;;;;10.24;75.85;103051.69;5038988;28;48352;-74
2021/12/17 10:38:17;;;;;;;;;35.25;33.25;;;;;10.19;75.80;103047.91;5057621;28;45282;-75
2021/12/17 10:41:10;;;;;;;;;34.50;34.50;;;;;10.24;75.40;103046.44;5057872;28;45560;-76
2021/12/17 10:43:44;;;;;;;;;33.25;31.00;;;;;10.28;75.57;103036.09;5039996;28;45455;-75
2021/12/17 10:46:25;;;;;;;;;39.75;36.00;;;;;10.30;75.20;103030.88;5056949;28;46373;-74
2021/12/17 10:49:17;;;;;;;;;42.50;37.25;;;;;10.34;75.12;103032.84;5057707;28;45354;-77
2021/12/17 10:51:48;;;;;;;;;36.75;31.75;;;;;10.39;74.66;103035.66;5058075;28;45311;-77
2021/12/17 10:54:19;;;;;;;;;40.00;34.00;;;;;10.30;74.30;103009.81;5040990;28;45357;-76
2021/12/17 10:56:50;;;;;;;;;38.00;35.00;;;;;10.32;75.30;103016.03;5040410;28;46376;-78
2021/12/17 10:59:24;;;;;;;;;40.25;35.00;;;;;10.27;74.96;103004.41;5058415;28;45280;-78
2021/12/17 11:01:59;;;;;;;;;46.00;36.50;;;;;10.42;75.18;103015.66;5058299;28;45221;-78
2021/12/17 11:04:30;;;;;;;;;43.25;37.50;;;;;10.34;73.66;102985.41;5039973;28;45470;-79
2021/12/17 11:07:07;;;;;;;;;36.25;31.75;;;;;10.49;74.24;102990.44;5058462;28;45416;-78
2021/12/17 11:09:55;;;;;;;;;38.00;32.75;;;;;10.60;73.21;102993.53;5057916;28;45375;-80
2021/12/17 11:12:35;;;;;;;;;40.00;36.25;;;;;10.69;73.96;102986.94;5040663;28;45281;-78
2021/12/17 11:15:07;;;;;;;;;44.00;30.75;;;;;10.80;73.24;102995.31;5058474;28;45276;-77
2021/12/17 11:17:32;;;;;;;;;42.75;35.75;;;;;10.82;72.56;103002.44;5057549;28;45305;-76
2021/12/17 11:20:04;;;;;;;;;41.50;37.00;;;;;10.84;72.51;102995.50;5039165;28;45431;-76
2021/12/17 11:22:30;;;;;;;;;40.50;35.25;;;;;10.84;72.53;102989.31;5056485;28;45248;-76
2021/12/17 11:24:58;;;;;;;;;43.00;37.50;;;;;10.88;71.77;102991.25;5057480;28;45499;-78
2021/12/17 11:27:25;;;;;;;;;33.00;32.25;;;;;10.75;71.98;102950.28;5057176;28;46990;-76
2021/12/17 11:29:50;;;;;;;;;41.50;35.50;;;;;10.93;71.28;102959.81;5057619;28;45358;-75
2021/12/17 11:32:18;;;;;;;;;56.25;44.00;;;;;11.12;71.86;102967.63;5057602;28;45370;-77
2021/12/17 11:34:44;;;;;;;;;50.00;40.75;;;;;11.06;70.33;102948.91;5057996;28;45425;-77
2021/12/17 11:37:11;;;;;;;;;42.50;36.50;;;;;11.18;70.84;102962.63;5057405;28;45271;-77
2021/12/17 11:39:54;;;;;;;;;45.00;38.25;;;;;11.22;70.78;102961.91;5057497;28;45295;-76
2021/12/17 11:42:43;;;;;;;;;38.75;34.75;;;;;11.30;69.82;102975.41;5057542;28;45274;-76
2021/12/17 11:45:26;;;;;;;;;38.25;36.00;;;;;11.34;70.63;102951.81;5057360;28;45426;-77
2021/12/17 11:48:10;;;;;;;;;45.00;35.75;;;;;11.39;70.07;102959.94;5039161;28;48173;-77
2021/12/17 11:50:36;;;;;;;;;33.75;33.75;;;;;11.35;68.13;102952.72;5057498;28;45361;-78
2021/12/17 11:53:21;;;;;;;;;41.75;38.00;;;;;11.29;68.78;102941.94;5057886;28;45279;-77
2021/12/17 11:55:55;;;;;;;;;34.25;29.75;;;;;11.31;68.64;102961.38;5057876;28;45435;-77
2021/12/17 11:58:48;;;;;;;;;41.25;36.25;;;;;11.33;68.37;102950.03;5057365;28;45542;-78
2021/12/17 12:01:52;;;;;;;;;44.00;38.50;;;;;11.33;68.83;102935.94;5057964;28;45508;-77
2021/12/17 12:04:33;;;;;;;;;34.00;30.00;;;;;11.41;68.06;102945.94;5057509;28;45441;-78
2021/12/17 12:07:16;;;;;;;;;38.00;35.50;;;;;11.31;67.56;102933.25;5057331;28;45538;-78
2021/12/17 12:09:57;;;;;;;;;36.25;34.50;;;;;11.41;67.79;102945.06;5056895;28;45393;-78
2021/12/17 12:12:34;;;;;;;;;39.25;33.50;;;;;11.37;68.07;102933.50;5057003;28;45544;-78
2021/12/17 12:18:18;;;;;;;;;36.50;32.50;;;;;11.32;67.50;102934.13;5057334;28;45258;-78
2021/12/17 12:23:22;;;;;;;;;30.75;29.25;;;;;11.31;67.16;102920.03;5057156;28;45508;-78
2021/12/17 12:26:03;;;;;;;;;32.75;27.25;;;;;11.43;66.06;102920.50;5056900;28;45354;-78
2021/12/17 12:28:54;;;;;;;;;39.50;35.00;;;;;11.48;66.49;102925.09;5055691;28;45303;-78
2021/12/17 12:31:32;;;;;;;;;36.75;27.25;;;;;11.50;65.93;102926.94;5057037;28;45343;-77
2021/12/17 12:34:13;;;;;;;;;32.50;28.75;;;;;11.59;66.30;102923.75;5058743;28;45321;-78
2021/12/17 12:36:58;;;;;;;;;34.25;29.25;;;;;11.59;64.71;102923.75;5061053;28;45492;-78
2021/12/17 12:39:36;;;;;;;;;32.50;25.75;;;;;11.61;65.48;102930.88;5061033;28;45356;-78
2021/12/17 12:42:04;;;;;;;;;30.00;26.50;;;;;11.63;65.64;102918.66;5058916;28;47081;-78
2021/12/17 12:44:42;;;;;;;;;34.50;32.50;;;;;11.70;64.58;102925.94;5060354;28;45287;-76
2021/12/17 12:47:27;;;;;;;;;26.00;23.00;;;;;11.83;64.71;102908.88;5059133;28;45508;-78
2021/12/17 12:49:56;;;;;;;;;36.50;30.50;;;;;11.96;63.58;102907.56;5060491;28;45537;-79
2021/12/17 12:52:33;;;;;;;;;32.75;30.25;;;;;12.10;63.32;102910.69;5042879;28;45447;-79
2021/12/17 12:55:04;;;;;;;;;34.25;31.50;;;;;12.13;63.47;102885.31;5060390;28;45366;-79
2021/12/17 12:57:39;;;;;;;;;34.75;29.25;;;;;12.22;63.43;102888.28;5060004;28;45224;-79
2021/12/17 13:00:08;;;;;;;;;28.75;26.50;;;;;12.26;62.83;102894.56;5060185;28;45207;-78
2021/12/17 13:02:34;;;;;;;;;28.25;27.25;;;;;12.20;62.99;102892.63;5059717;28;46123;-77
2021/12/17 13:05:01;;;;;;;;;31.50;28.50;;;;;12.05;62.93;102876.22;5059558;28;45399;-77
2021/12/17 13:07:34;;;;;;;;;27.50;24.50;;;;;11.94;61.81;102872.28;5058653;28;45349;-79
2021/12/17 13:10:15;;;;;;;;;39.00;32.75;;;;;12.03;62.65;102896.41;5059182;28;45448;-78
2021/12/17 13:12:46;;;;;;;;;27.25;27.25;;;;;12.03;63.08;102900.78;5039651;28;45314;-79
2021/12/17 13:15:38;;;;;;;;;31.00;28.50;;;;;11.99;63.18;102903.28;5053767;28;45539;-79
2021/12/17 13:22:26;;;;;;;;;28.00;24.00;;;;;11.59;63.68;102889.44;5060177;28;45300;-79
2021/12/17 13:26:34;;;;;;;;;32.75;28.50;;;;;11.23;64.40;102899.47;5051804;28;45359;-77
2021/12/17 13:29:13;;;;;;;;;33.50;26.50;;;;;11.14;65.76;102884.19;5053503;28;45593;-77
2021/12/17 13:31:41;;;;;;;;;29.50;25.25;;;;;11.36;64.76;102896.50;5057633;28;45539;-75
2021/12/17 13:34:13;;;;;;;;;37.50;33.00;;;;;11.41;64.76;102890.53;5057389;28;45510;-77
2021/12/17 13:37:02;;;;;;;;;28.50;27.50;;;;;11.42;64.26;102876.50;5039911;28;45545;-76
2021/12/17 13:39:55;;;;;;;;;24.00;22.25;;;;;11.59;65.25;102879.78;5054195;28;45315;-78
2021/12/17 13:42:22;;;;;;;;;26.75;26.75;;;;;11.64;64.09;102879.97;5057817;28;45548;-76
2021/12/17 13:44:52;;;;;;;;;25.00;25.00;;;;;11.73;64.83;102880.31;5057470;28;45568;-73
2021/12/17 13:47:24;;;;;;;;;32.75;27.00;;;;;11.74;64.15;102873.28;5058816;28;45231;-74
2021/12/17 13:50:04;;;;;;;;;35.25;30.25;;;;;11.66;64.29;102870.34;5058389;28;45303;-76
2021/12/17 13:52:32;;;;;;;;;26.25;25.50;;;;;11.61;64.63;102866.63;5058645;28;45318;-74
2021/12/17 13:55:01;;;;;;;;;29.25;28.50;;;;;11.47;64.93;102865.22;5054146;28;45758;-73
2021/12/17 13:57:31;;;;;;;;;35.25;31.25;;;;;11.50;65.47;102873.25;5055842;28;45389;-74
2021/12/17 14:00:16;;;;;;;;;29.75;28.25;;;;;11.37;65.34;102850.78;5055555;28;45428;-76
2021/12/17 14:02:45;;;;;;;;;28.50;27.25;;;;;11.40;65.21;102870.25;5055900;28;45762;-74
2021/12/17 14:05:26;;;;;;;;;30.75;27.25;;;;;11.20;64.98;102860.69;5055434;28;45448;-76
2021/12/17 14:07:54;;;;;;;;;60.25;47.25;;;;;10.91;65.13;102843.72;5041750;28;45534;-74
2021/12/17 14:10:23;;;;;;;;;31.25;25.50;;;;;10.68;65.46;102824.34;5055959;28;45544;-74
2021/12/17 14:12:49;;;;;;;;;26.25;24.25;;;;;10.91;66.40;102867.47;5057833;28;45401;-75